Time;durP1;ratioP1;P1;durP2;ratioP2;P2;SDS_P1;SDS_P2;PMS_P1;PMS_P2;Temp;Humidity;BMP_temperature;BMP_pressure;BME280_temperature;BME280_humidity;BME280_pressure;Samples;Min_cycle;Max_cycle;Signal;HPM_P1;HPM_P2
2020/12/24 00:01:30;;;;;;;2.38;0.47;;;11.70;99.90;;;;;;5031877;28;20086;-67
2020/12/24 00:03:56;;;;;;;1.27;0.47;;;11.70;99.90;;;;;;5054818;28;20036;-71
2020/12/24 00:06:21;;;;;;;2.17;0.60;;;11.70;99.90;;;;;;5053816;28;20055;-67
2020/12/24 00:08:47;;;;;;;3.08;0.32;;;11.70;99.90;;;;;;5054155;28;20047;-66
2020/12/24 00:11:13;;;;;;;2.20;0.50;;;11.70;99.90;;;;;;5036004;28;20029;-68
2020/12/24 00:13:38;;;;;;;2.90;0.40;;;11.60;99.90;;;;;;5036891;28;20024;-66
2020/12/24 00:16:04;;;;;;;3.90;0.52;;;11.60;99.90;;;;;;5055496;28;20545;-67
2020/12/24 00:18:30;;;;;;;2.70;0.40;;;11.60;99.90;;;;;;5054357;28;20331;-68
2020/12/24 00:20:56;;;;;;;1.45;0.32;;;11.50;99.90;;;;;;5035511;28;20055;-68
2020/12/24 00:23:22;;;;;;;2.17;0.70;;;11.40;99.90;;;;;;5053347;28;20025;-67
2020/12/24 00:25:47;;;;;;;1.42;0.50;;;11.40;99.90;;;;;;5053047;28;20569;-67
2020/12/24 00:28:13;;;;;;;2.35;0.47;;;11.40;99.90;;;;;;5034038;28;20505;-65
2020/12/24 00:30:42;;;;;;;8.38;0.60;;;11.30;99.90;;;;;;5028664;28;20033;-67
2020/12/24 00:33:11;;;;;;;2.47;0.30;;;11.30;99.90;;;;;;5032986;28;20033;-68
2020/12/24 00:35:38;;;;;;;3.45;0.80;;;11.30;99.90;;;;;;5034164;28;20394;-67
2020/12/24 00:38:03;;;;;;;6.90;1.60;;;11.20;99.90;;;;;;5034031;28;20055;-70
2020/12/24 00:40:29;;;;;;;3.05;0.32;;;11.20;99.90;;;;;;5032532;28;20029;-65
2020/12/24 00:42:55;;;;;;;5.15;0.63;;;11.20;99.90;;;;;;5032920;28;20108;-68
2020/12/24 00:45:20;;;;;;;2.55;0.40;;;11.30;99.90;;;;;;5014533;28;20059;-67
2020/12/24 00:47:47;;;;;;;1.45;0.30;;;11.20;99.90;;;;;;5032529;28;20124;-67
2020/12/24 00:50:12;;;;;;;4.05;0.63;;;11.20;99.90;;;;;;5014738;28;20423;-66
2020/12/24 00:52:38;;;;;;;2.65;0.30;;;11.20;99.90;;;;;;5032653;28;20136;-66
2020/12/24 00:55:04;;;;;;;2.40;0.77;;;11.20;99.90;;;;;;5015521;28;20132;-67
2020/12/24 00:57:29;;;;;;;0.55;0.20;;;11.10;99.90;;;;;;5015270;28;20025;-66
2020/12/24 00:59:55;;;;;;;5.95;0.57;;;11.10;99.90;;;;;;5018103;28;20076;-70
2020/12/24 01:02:21;;;;;;;1.38;0.38;;;11.10;99.90;;;;;;5053251;28;20029;-69
2020/12/24 01:04:46;;;;;;;2.95;0.45;;;11.10;99.90;;;;;;5036247;28;20033;-67
2020/12/24 01:07:12;;;;;;;3.38;0.47;;;11.00;99.90;;;;;;5052678;28;20109;-67
2020/12/24 01:09:38;;;;;;;4.63;1.00;;;11.00;99.90;;;;;;5035883;28;20060;-65
2020/12/24 01:12:03;;;;;;;2.85;0.40;;;11.00;99.90;;;;;;5053342;28;20031;-65
2020/12/24 01:14:29;;;;;;;4.80;0.52;;;11.00;99.90;;;;;;5051510;28;20054;-67
2020/12/24 01:16:55;;;;;;;3.47;0.75;;;11.00;99.90;;;;;;5053174;28;20068;-66
2020/12/24 01:19:20;;;;;;;5.53;0.60;;;10.90;99.90;;;;;;5052423;28;20040;-65
2020/12/24 01:21:47;;;;;;;5.85;0.85;;;11.00;99.90;;;;;;5036113;28;20029;-66
2020/12/24 01:24:13;;;;;;;5.72;0.75;;;10.90;99.90;;;;;;5034936;28;20035;-70
2020/12/24 01:26:45;;;;;;;7.85;1.48;;;10.80;99.90;;;;;;5034679;28;20040;-66
2020/12/24 01:29:11;;;;;;;4.78;0.75;;;10.80;99.90;;;;;;5033986;28;20047;-67
2020/12/24 01:31:36;;;;;;;8.13;1.30;;;10.80;99.90;;;;;;5035248;28;20459;-69
2020/12/24 01:34:02;;;;;;;3.40;0.63;;;10.80;99.90;;;;;;5055960;28;20041;-65
2020/12/24 01:36:28;;;;;;;5.60;0.57;;;10.80;99.90;;;;;;5056049;28;20025;-65
2020/12/24 01:38:53;;;;;;;4.22;0.80;;;10.80;99.90;;;;;;5038525;28;20032;-66
2020/12/24 01:41:19;;;;;;;5.65;0.80;;;10.80;99.90;;;;;;5055491;28;20360;-66
2020/12/24 01:43:44;;;;;;;3.70;0.90;;;10.80;99.90;;;;;;5055965;28;20025;-66
2020/12/24 01:46:10;;;;;;;3.42;0.80;;;10.80;99.90;;;;;;5037701;28;20033;-69
2020/12/24 01:48:36;;;;;;;7.18;0.73;;;10.70;99.90;;;;;;5037890;28;20021;-65
2020/12/24 01:51:01;;;;;;;10.93;1.25;;;10.70;99.90;;;;;;5056384;28;20032;-66
2020/12/24 01:53:28;;;;;;;5.72;0.90;;;10.70;99.90;;;;;;5055237;28;20083;-66
2020/12/24 01:55:56;;;;;;;2.38;0.90;;;10.60;99.90;;;;;;5055693;28;20075;-65
2020/12/24 01:58:22;;;;;;;4.63;0.52;;;10.70;99.90;;;;;;5037528;28;20033;-66
2020/12/24 02:00:48;;;;;;;1.25;0.40;;;10.60;99.90;;;;;;5047207;28;20076;-66
2020/12/24 02:03:14;;;;;;;3.72;0.75;;;10.60;99.90;;;;;;5035023;28;20062;-66
2020/12/24 02:05:40;;;;;;;6.93;1.10;;;10.60;99.90;;;;;;5018231;28;20060;-67
2020/12/24 02:08:06;;;;;;;5.28;0.68;;;10.70;99.90;;;;;;5038164;28;20477;-66
2020/12/24 02:10:31;;;;;;;3.67;0.82;;;10.60;99.90;;;;;;5018501;28;20041;-66
2020/12/24 02:12:57;;;;;;;4.70;0.68;;;10.60;99.90;;;;;;5036685;28;20059;-72
2020/12/24 02:15:23;;;;;;;5.57;0.60;;;10.60;99.90;;;;;;5019341;28;20030;-66
2020/12/24 02:17:48;;;;;;;3.10;0.45;;;10.50;99.90;;;;;;5037925;28;20025;-71
2020/12/24 02:20:14;;;;;;;4.03;0.85;;;10.50;99.90;;;;;;5019421;28;20418;-67
2020/12/24 02:22:39;;;;;;;7.97;1.10;;;10.50;99.90;;;;;;5019847;28;20032;-66
2020/12/24 02:25:05;;;;;;;5.60;0.80;;;10.40;99.90;;;;;;5019924;28;20390;-68
2020/12/24 02:27:31;;;;;;;7.05;0.73;;;10.50;99.90;;;;;;5019520;28;20022;-68
2020/12/24 02:29:58;;;;;;;5.20;1.15;;;10.40;99.90;;;;;;5039154;28;20381;-65
2020/12/24 02:32:24;;;;;;;2.60;0.50;;;10.40;99.90;;;;;;5057455;28;20072;-68
2020/12/24 02:34:49;;;;;;;6.15;0.82;;;10.40;99.90;;;;;;5057774;28;20033;-66
2020/12/24 02:37:15;;;;;;;3.30;1.00;;;10.40;99.90;;;;;;5039396;28;20056;-67
2020/12/24 02:39:40;;;;;;;7.60;1.30;;;10.40;99.90;;;;;;5058570;28;20101;-72
2020/12/24 02:42:06;;;;;;;5.53;0.70;;;10.30;99.90;;;;;;5058421;28;20369;-69
2020/12/24 02:44:32;;;;;;;6.68;1.10;;;10.30;99.90;;;;;;5025532;28;20026;-66
2020/12/24 02:46:57;;;;;;;8.00;0.93;;;10.30;99.90;;;;;;5035082;28;20434;-66
2020/12/24 02:49:23;;;;;;;4.70;1.20;;;10.30;99.90;;;;;;5035834;28;20025;-65
2020/12/24 02:51:48;;;;;;;5.80;0.70;;;10.20;99.90;;;;;;5035760;28;20034;-70
2020/12/24 02:54:14;;;;;;;7.18;1.42;;;10.20;99.90;;;;;;5034041;28;20113;-67
2020/12/24 02:56:40;;;;;;;7.20;1.20;;;10.20;99.90;;;;;;5018344;28;20029;-65
2020/12/24 02:59:05;;;;;;;6.22;2.25;;;10.10;99.90;;;;;;5018331;28;20375;-66
2020/12/24 03:01:31;;;;;;;9.32;0.77;;;10.20;99.90;;;;;;5035303;28;20036;-65
2020/12/24 03:03:57;;;;;;;5.57;1.15;;;10.20;99.90;;;;;;5018250;28;20033;-73
2020/12/24 03:06:22;;;;;;;4.15;0.88;;;10.20;99.90;;;;;;5017023;28;20034;-66
2020/12/24 03:08:48;;;;;;;5.32;0.93;;;10.20;99.90;;;;;;5034691;28;20025;-65
2020/12/24 03:11:14;;;;;;;5.40;0.77;;;10.10;99.90;;;;;;5037012;28;20109;-72
2020/12/24 03:13:40;;;;;;;5.75;0.65;;;10.10;99.90;;;;;;5035777;28;20043;-68
2020/12/24 03:16:05;;;;;;;5.30;1.15;;;10.20;99.90;;;;;;5036040;28;20418;-65
2020/12/24 03:18:31;;;;;;;2.65;0.90;;;10.20;99.90;;;;;;5034639;28;20109;-69
2020/12/24 03:20:57;;;;;;;7.55;1.02;;;10.20;99.90;;;;;;5035729;28;20513;-66
2020/12/24 03:23:22;;;;;;;7.25;1.58;;;10.10;99.90;;;;;;5017212;28;20112;-66
2020/12/24 03:25:48;;;;;;;5.88;1.10;;;10.10;99.90;;;;;;5037303;28;20116;-71
2020/12/24 03:28:14;;;;;;;4.72;0.93;;;10.10;99.90;;;;;;5019448;28;20025;-68
2020/12/24 03:30:39;;;;;;;7.93;1.30;;;10.00;99.90;;;;;;5044377;28;20064;-67
2020/12/24 03:33:05;;;;;;;8.57;1.50;;;10.00;99.90;;;;;;5039532;28;20036;-65
2020/12/24 03:35:31;;;;;;;9.02;2.22;;;10.10;99.90;;;;;;5038575;28;20129;-66
2020/12/24 03:37:56;;;;;;;19.40;1.75;;;9.90;99.90;;;;;;5057089;28;20040;-66
2020/12/24 03:40:22;;;;;;;9.10;2.53;;;10.00;99.90;;;;;;5038830;28;20025;-66
2020/12/24 03:42:47;;;;;;;5.60;1.00;;;10.00;99.90;;;;;;5057185;28;20422;-66
2020/12/24 03:45:13;;;;;;;7.22;1.02;;;9.90;99.90;;;;;;5039161;28;20469;-66
2020/12/24 03:47:40;;;;;;;10.32;1.33;;;9.90;99.90;;;;;;5037708;28;20025;-66
2020/12/24 03:50:06;;;;;;;8.13;1.33;;;10.00;99.90;;;;;;5057067;28;20108;-65
2020/12/24 03:52:31;;;;;;;6.18;0.60;;;9.90;99.90;;;;;;5038013;28;20102;-66
2020/12/24 03:54:57;;;;;;;6.82;1.02;;;9.90;99.90;;;;;;5036942;28;20408;-65
2020/12/24 03:57:23;;;;;;;12.10;1.75;;;9.90;99.90;;;;;;5036423;28;20078;-65
2020/12/24 03:59:48;;;;;;;6.88;1.23;;;9.90;99.90;;;;;;5037390;28;20025;-70
2020/12/24 04:02:14;;;;;;;6.97;1.27;;;9.90;99.90;;;;;;5038824;28;20025;-66
2020/12/24 04:04:39;;;;;;;8.32;1.10;;;9.80;99.90;;;;;;5037941;28;20355;-66
2020/12/24 04:07:05;;;;;;;13.75;1.30;;;9.80;99.90;;;;;;5035697;28;20359;-65
2020/12/24 04:09:31;;;;;;;8.80;1.13;;;9.80;99.90;;;;;;5035121;28;20095;-66
2020/12/24 04:11:56;;;;;;;5.63;1.42;;;9.80;99.90;;;;;;5053415;28;20025;-65
2020/12/24 04:14:22;;;;;;;6.07;1.15;;;9.70;99.90;;;;;;5034705;28;20032;-65
2020/12/24 04:16:47;;;;;;;4.43;0.95;;;9.50;99.90;;;;;;5035081;28;20382;-66
2020/12/24 04:19:13;;;;;;;8.73;1.38;;;9.60;99.90;;;;;;5052914;28;20059;-66
2020/12/24 04:21:39;;;;;;;25.77;1.65;;;9.60;99.90;;;;;;5034829;28;20320;-66
2020/12/24 04:24:04;;;;;;;10.05;2.15;;;9.60;99.90;;;;;;5053676;28;20025;-65
2020/12/24 04:26:30;;;;;;;6.80;1.20;;;9.50;99.90;;;;;;5052087;28;20041;-65
2020/12/24 04:28:55;;;;;;;8.77;1.02;;;9.40;99.90;;;;;;5034619;28;20025;-65
2020/12/24 04:31:21;;;;;;;6.45;1.10;;;9.50;99.90;;;;;;5033947;28;20025;-66
2020/12/24 04:33:47;;;;;;;4.35;1.05;;;9.40;99.90;;;;;;5035182;28;20036;-65
2020/12/24 04:36:14;;;;;;;6.43;1.30;;;9.40;99.90;;;;;;5034775;28;20091;-65
2020/12/24 04:38:40;;;;;;;7.88;1.42;;;9.30;99.90;;;;;;5051886;28;20021;-64
2020/12/24 04:41:05;;;;;;;5.25;1.50;;;9.40;99.90;;;;;;5035314;28;20382;-65
2020/12/24 04:43:32;;;;;;;6.55;1.15;;;9.30;99.90;;;;;;5034364;28;20463;-66
2020/12/24 04:45:59;;;;;;;5.47;1.15;;;9.30;99.90;;;;;;5052542;28;20033;-66
2020/12/24 04:48:25;;;;;;;4.53;1.25;;;9.40;99.90;;;;;;5052312;28;20025;-71
2020/12/24 04:50:53;;;;;;;5.20;1.83;;;9.30;99.90;;;;;;5053369;28;20100;-67
2020/12/24 04:53:19;;;;;;;4.63;1.13;;;9.20;99.90;;;;;;5037574;28;20029;-70
2020/12/24 04:55:45;;;;;;;6.25;1.08;;;9.30;99.90;;;;;;5054195;28;20063;-68
2020/12/24 04:58:11;;;;;;;8.77;1.27;;;9.20;99.90;;;;;;5035450;28;20025;-67
2020/12/24 05:00:40;;;;;;;7.15;1.35;;;9.20;99.90;;;;;;5054156;28;20432;-65
2020/12/24 05:03:08;;;;;;;3.90;0.98;;;9.20;99.90;;;;;;5054343;28;20069;-67
2020/12/24 05:05:35;;;;;;;7.65;1.17;;;9.20;99.90;;;;;;5034885;28;20040;-65
2020/12/24 05:08:07;;;;;;;8.63;1.15;;;9.10;99.90;;;;;;5052090;28;20028;-66
2020/12/24 05:10:35;;;;;;;3.88;1.40;;;9.20;99.90;;;;;;5053519;28;20142;-69
2020/12/24 05:13:18;;;;;;;7.35;1.33;;;9.20;99.90;;;;;;5037137;28;20138;-66
2020/12/24 05:15:44;;;;;;;6.10;1.02;;;9.20;99.90;;;;;;5054611;28;20036;-69
2020/12/24 05:18:14;;;;;;;3.15;1.10;;;9.30;99.90;;;;;;5036408;28;20029;-70
2020/12/24 05:20:40;;;;;;;10.70;1.10;;;9.20;99.90;;;;;;5054472;28;20524;-69
2020/12/24 05:23:14;;;;;;;6.57;1.55;;;9.20;99.90;;;;;;5038410;28;20109;-70
2020/12/24 05:25:40;;;;;;;12.50;1.63;;;9.20;99.90;;;;;;5055454;28;20036;-66
2020/12/24 05:28:06;;;;;;;12.35;2.13;;;9.20;99.90;;;;;;5036963;28;20059;-65
2020/12/24 05:30:33;;;;;;;9.32;1.23;;;9.30;99.90;;;;;;5051705;28;20055;-66
2020/12/24 05:32:59;;;;;;;10.75;1.45;;;9.30;99.90;;;;;;5035960;28;20410;-65
2020/12/24 05:35:26;;;;;;;5.40;1.10;;;9.30;99.90;;;;;;5053721;28;20064;-66
2020/12/24 05:37:53;;;;;;;3.58;1.02;;;9.30;99.90;;;;;;5035729;28;20029;-67
2020/12/24 05:40:38;;;;;;;6.90;1.70;;;9.30;99.90;;;;;;5054578;28;20057;-66
2020/12/24 05:43:03;;;;;;;9.52;1.10;;;9.30;99.90;;;;;;5050685;28;20029;-65
2020/12/24 05:45:31;;;;;;;12.57;1.63;;;9.30;99.90;;;;;;5034802;28;20124;-66
2020/12/24 05:48:10;;;;;;;6.47;1.10;;;9.30;99.90;;;;;;5034669;28;20056;-66
2020/12/24 05:50:36;;;;;;;7.45;1.67;;;9.20;99.90;;;;;;5051501;28;20026;-66
2020/12/24 05:53:13;;;;;;;8.32;1.42;;;9.20;99.90;;;;;;5052400;28;20188;-69
2020/12/24 05:55:41;;;;;;;4.68;1.45;;;9.10;99.90;;;;;;5051510;28;20040;-65
2020/12/24 05:58:08;;;;;;;8.40;1.40;;;9.20;99.90;;;;;;5034412;28;20071;-67
2020/12/24 06:00:41;;;;;;;18.00;2.45;;;9.20;99.90;;;;;;5033090;28;20477;-66
2020/12/24 06:03:20;;;;;;;4.97;1.23;;;9.10;99.90;;;;;;5051480;28;20033;-65
2020/12/24 06:05:58;;;;;;;14.13;1.77;;;9.00;99.90;;;;;;5053629;28;20056;-65
2020/12/24 06:08:29;;;;;;;4.32;1.02;;;9.00;99.90;;;;;;5033689;28;20444;-66
2020/12/24 06:11:02;;;;;;;10.55;3.33;;;8.90;99.90;;;;;;5050188;28;20051;-66
2020/12/24 06:13:48;;;;;;;7.40;1.20;;;8.90;99.90;;;;;;5033379;28;20036;-67
2020/12/24 06:16:15;;;;;;;8.88;2.03;;;8.90;99.90;;;;;;5034133;28;20032;-67
2020/12/24 06:18:42;;;;;;;5.53;1.02;;;8.90;99.90;;;;;;5053612;28;20476;-66
2020/12/24 06:21:19;;;;;;;9.13;1.33;;;8.90;99.90;;;;;;5055676;28;20029;-66
2020/12/24 06:23:59;;;;;;;10.45;1.90;;;8.90;99.90;;;;;;5055129;28;20028;-68
2020/12/24 06:26:29;;;;;;;6.40;1.08;;;8.70;99.90;;;;;;5055228;28;20107;-67
2020/12/24 06:29:00;;;;;;;6.63;1.00;;;8.60;99.90;;;;;;5055536;28;20023;-66
2020/12/24 06:31:26;;;;;;;10.68;1.33;;;8.70;99.90;;;;;;5055690;28;20471;-67
2020/12/24 06:33:52;;;;;;;13.07;2.08;;;8.70;99.90;;;;;;5056301;28;20032;-67
2020/12/24 06:36:37;;;;;;;8.43;2.10;;;8.70;99.90;;;;;;5057672;28;20059;-71
2020/12/24 06:39:04;;;;;;;6.55;1.40;;;8.70;99.90;;;;;;5056365;28;20036;-66
2020/12/24 06:41:38;;;;;;;9.48;1.50;;;8.70;99.90;;;;;;5054868;28;20029;-68
2020/12/24 06:44:08;;;;;;;3.28;1.38;;;8.60;99.90;;;;;;5056156;28;20043;-65
2020/12/24 06:46:59;;;;;;;11.05;1.80;;;8.70;99.90;;;;;;5054407;28;20462;-66
2020/12/24 06:49:30;;;;;;;7.85;1.02;;;8.70;99.90;;;;;;5054584;28;20036;-67
2020/12/24 06:51:56;;;;;;;5.10;1.02;;;8.70;99.90;;;;;;5055692;28;20039;-67
2020/12/24 06:54:24;;;;;;;11.18;1.30;;;8.60;99.90;;;;;;5055681;28;20100;-66
2020/12/24 06:57:10;;;;;;;6.78;0.80;;;8.50;99.90;;;;;;5036579;28;20386;-68
2020/12/24 06:59:35;;;;;;;5.25;1.25;;;8.50;99.90;;;;;;5036219;28;20474;-66
2020/12/24 07:02:03;;;;;;;5.47;1.10;;;8.50;99.90;;;;;;5054379;28;20048;-66
2020/12/24 07:04:40;;;;;;;3.42;0.85;;;8.40;99.90;;;;;;5036065;28;20083;-68
2020/12/24 07:07:06;;;;;;;14.05;2.70;;;8.40;99.90;;;;;;5054755;28;20029;-66
2020/12/24 07:09:32;;;;;;;8.85;1.52;;;8.30;99.90;;;;;;5053494;28;20132;-67
2020/12/24 07:11:59;;;;;;;9.02;1.83;;;8.40;99.90;;;;;;5054772;28;20051;-67
2020/12/24 07:14:33;;;;;;;6.65;1.85;;;8.40;99.90;;;;;;5054860;28;20033;-67
2020/12/24 07:17:14;;;;;;;5.53;0.70;;;8.40;99.90;;;;;;5036721;28;20457;-67
2020/12/24 07:19:42;;;;;;;10.27;3.03;;;8.30;99.90;;;;;;5036568;28;20520;-66
2020/12/24 07:22:11;;;;;;;8.25;1.58;;;8.40;99.90;;;;;;5054351;28;20029;-67
2020/12/24 07:24:37;;;;;;;11.60;1.25;;;8.50;99.90;;;;;;5035292;28;20119;-66
2020/12/24 07:27:05;;;;;;;5.05;1.00;;;8.40;99.90;;;;;;5054349;28;20147;-67
2020/12/24 07:29:32;;;;;;;4.63;0.70;;;8.30;99.90;;;;;;5034922;28;20029;-69
2020/12/24 07:32:04;;;;;;;6.53;2.05;;;8.30;99.90;;;;;;5017880;28;20030;-67
2020/12/24 07:34:32;;;;;;;6.05;1.30;;;8.40;99.90;;;;;;5031618;28;20048;-69
2020/12/24 07:36:58;;;;;;;9.52;2.30;;;8.40;99.90;;;;;;5016257;28;20033;-67
2020/12/24 07:39:25;;;;;;;5.95;1.42;;;8.60;99.90;;;;;;5016422;28;20101;-67
2020/12/24 07:41:51;;;;;;;5.82;0.85;;;8.60;99.90;;;;;;5033540;28;20938;-67
2020/12/24 07:44:18;;;;;;;7.13;0.80;;;8.60;99.90;;;;;;5016252;28;20025;-67
2020/12/24 07:46:45;;;;;;;4.50;1.00;;;8.50;99.90;;;;;;5015701;28;20080;-67
2020/12/24 07:49:11;;;;;;;7.72;1.15;;;8.50;99.90;;;;;;5034611;28;20032;-68
2020/12/24 07:51:36;;;;;;;7.35;0.93;;;8.60;99.90;;;;;;5034696;28;20061;-66
2020/12/24 07:54:17;;;;;;;7.53;1.10;;;8.40;99.90;;;;;;5016088;28;20029;-68
2020/12/24 07:56:45;;;;;;;17.33;2.22;;;8.50;99.90;;;;;;5033258;28;20033;-67
2020/12/24 07:59:11;;;;;;;8.45;1.60;;;8.40;99.90;;;;;;5016101;28;20033;-67
2020/12/24 08:01:37;;;;;;;6.55;1.98;;;8.40;99.90;;;;;;5048978;28;20029;-67
2020/12/24 08:04:05;;;;;;;6.90;1.00;;;8.60;99.90;;;;;;5036172;28;20079;-67
2020/12/24 08:06:32;;;;;;;8.63;1.65;;;8.60;99.90;;;;;;5054125;28;20036;-71
2020/12/24 08:09:14;;;;;;;87.68;61.30;;;8.50;99.90;;;;;;5036509;28;20079;-65
2020/12/24 08:11:41;;;;;;;30.58;18.45;;;8.30;99.90;;;;;;5053348;28;20029;-67
2020/12/24 08:14:07;;;;;;;9.48;2.08;;;8.40;99.90;;;;;;5035575;28;20508;-65
2020/12/24 08:16:36;;;;;;;11.30;1.70;;;8.40;99.90;;;;;;5035158;28;20037;-68
2020/12/24 08:19:35;;;;;;;6.90;1.50;;;8.30;99.90;;;;;;5054082;28;20044;-70
2020/12/24 08:22:16;;;;;;;5.45;1.38;;;8.30;99.90;;;;;;5025900;28;20033;-68
2020/12/24 08:24:42;;;;;;;3.33;0.77;;;8.30;99.90;;;;;;5053352;28;20104;-68
2020/12/24 08:27:08;;;;;;;5.43;1.25;;;8.30;99.90;;;;;;5035826;28;20028;-68
2020/12/24 08:29:36;;;;;;;122.28;71.72;;;8.40;99.90;;;;;;5052957;28;20440;-68
2020/12/24 08:32:03;;;;;;;23.80;15.02;;;8.40;99.90;;;;;;5054161;28;20025;-71
2020/12/24 08:34:29;;;;;;;5.40;2.00;;;8.40;99.90;;;;;;5038879;28;20478;-68
2020/12/24 08:36:56;;;;;;;5.18;0.82;;;8.50;99.90;;;;;;5037436;28;20029;-68
2020/12/24 08:39:22;;;;;;;4.97;1.05;;;8.40;99.90;;;;;;5055233;28;20031;-70
2020/12/24 08:41:57;;;;;;;8.98;0.73;;;8.30;99.90;;;;;;5037576;28;20049;-69
2020/12/24 08:44:24;;;;;;;5.82;0.77;;;8.40;99.90;;;;;;5056936;28;20040;-72
2020/12/24 08:47:04;;;;;;;3.88;1.05;;;8.50;99.90;;;;;;5056709;28;20069;-68
2020/12/24 08:49:30;;;;;;;7.95;1.20;;;8.50;99.90;;;;;;5037378;28;20435;-72
2020/12/24 08:52:14;;;;;;;3.97;1.52;;;8.40;99.90;;;;;;5036294;28;20055;-64
2020/12/24 08:54:59;;;;;;;18.00;2.88;;;8.70;99.90;;;;;;5055759;28;20029;-65
2020/12/24 08:57:25;;;;;;;2.22;0.30;;;10.40;99.90;;;;;;5056463;28;20116;-70
2020/12/24 08:59:58;;;;;;;4.18;0.47;;;9.90;99.90;;;;;;5038615;28;20060;-71
2020/12/24 09:02:37;;;;;;;1.25;0.75;;;9.20;99.90;;;;;;5057869;28;20070;-71
2020/12/24 09:05:04;;;;;;;5.15;0.47;;;9.00;99.90;;;;;;5040095;28;20025;-69
2020/12/24 09:07:34;;;;;;;2.95;0.30;;;8.80;99.90;;;;;;5037316;28;20029;-69
2020/12/24 09:10:09;;;;;;;2.35;0.35;;;8.80;99.90;;;;;;5035210;28;20083;-70
2020/12/24 09:12:37;;;;;;;0.75;0.20;;;8.70;99.90;;;;;;5034984;28;20029;-69
2020/12/24 09:15:16;;;;;;;2.83;0.85;;;8.60;99.90;;;;;;5053068;28;20036;-69
2020/12/24 09:17:56;;;;;;;2.50;0.25;;;8.60;99.90;;;;;;5055035;28;20129;-69
2020/12/24 09:20:22;;;;;;;2.95;0.30;;;8.60;99.90;;;;;;5055011;28;20025;-70
2020/12/24 09:22:50;;;;;;;1.65;0.30;;;8.50;99.90;;;;;;5037822;28;20194;-68
2020/12/24 09:25:37;;;;;;;1.65;0.55;;;8.50;99.90;;;;;;5036301;28;20037;-67
2020/12/24 09:28:05;;;;;;;5.40;1.17;;;8.50;99.90;;;;;;5055664;28;20037;-67
2020/12/24 09:30:32;;;;;;;1.02;0.30;;;8.50;99.90;;;;;;5048507;28;20031;-71
2020/12/24 09:33:00;;;;;;;2.65;0.50;;;8.50;99.90;;;;;;5016149;28;20612;-70
2020/12/24 09:35:28;;;;;;;1.35;0.35;;;8.50;99.90;;;;;;5033374;28;20040;-69
2020/12/24 09:37:54;;;;;;;1.88;0.38;;;8.50;99.90;;;;;;5033121;28;20099;-70
2020/12/24 09:40:21;;;;;;;281.60;179.10;;;8.60;99.90;;;;;;5022275;28;20026;-70
2020/12/24 09:42:47;;;;;;;6.03;3.38;;;8.70;99.90;;;;;;5019490;28;20112;-70
2020/12/24 09:45:13;;;;;;;1.08;0.25;;;9.00;99.90;;;;;;5015620;28;20485;-67
2020/12/24 09:47:38;;;;;;;1.52;0.30;;;8.90;99.90;;;;;;5015305;28;20033;-69
2020/12/24 09:50:05;;;;;;;0.60;0.28;;;8.80;99.90;;;;;;5014962;28;20022;-70
2020/12/24 09:52:31;;;;;;;3.58;0.30;;;8.70;99.90;;;;;;5016405;28;20036;-66
2020/12/24 09:54:57;;;;;;;1.17;0.20;;;8.80;99.90;;;;;;5018132;28;20346;-71
2020/12/24 09:57:23;;;;;;;1.40;0.20;;;8.80;99.90;;;;;;5018574;28;20120;-69
2020/12/24 09:59:49;;;;;;;0.77;0.35;;;8.70;99.90;;;;;;5018759;28;20029;-67
2020/12/24 10:02:14;;;;;;;1.13;0.20;;;8.80;99.90;;;;;;5038616;28;20462;-68
2020/12/24 10:04:40;;;;;;;1.73;0.20;;;8.80;99.90;;;;;;5037025;28;20417;-64
2020/12/24 10:07:05;;;;;;;0.88;0.10;;;9.00;99.90;;;;;;5055815;28;20039;-65
2020/12/24 10:09:32;;;;;;;1.02;0.30;;;9.80;99.90;;;;;;5038364;28;20094;-70
2020/12/24 10:11:57;;;;;;;0.30;0.20;;;9.50;99.90;;;;;;5037807;28;20609;-68
2020/12/24 10:14:23;;;;;;;0.47;0.10;;;9.50;99.90;;;;;;5056070;28;20032;-68
2020/12/24 10:16:48;;;;;;;2.30;0.50;;;9.40;99.90;;;;;;5055028;28;20477;-69
2020/12/24 10:19:14;;;;;;;1.50;0.30;;;9.30;99.90;;;;;;5055446;28;20025;-69
2020/12/24 10:21:40;;;;;;;0.75;0.30;;;9.50;99.90;;;;;;5055350;28;20021;-70
2020/12/24 10:24:06;;;;;;;1.50;0.30;;;9.50;99.90;;;;;;5056378;28;20053;-70
2020/12/24 10:26:32;;;;;;;0.68;0.20;;;9.70;99.90;;;;;;5037712;28;20453;-69
2020/12/24 10:28:58;;;;;;;2.30;0.30;;;9.70;99.90;;;;;;5055766;28;20036;-69
2020/12/24 10:31:23;;;;;;;1.45;0.30;;;9.50;99.90;;;;;;5024713;28;20439;-70
2020/12/24 10:33:49;;;;;;;0.70;0.30;;;9.40;99.90;;;;;;5036308;28;20438;-70
2020/12/24 10:36:24;;;;;;;1.65;0.10;;;9.50;99.90;;;;;;5036758;28;20040;-69
2020/12/24 10:38:50;;;;;;;1.02;0.30;;;9.40;99.90;;;;;;5036710;28;20030;-69
2020/12/24 10:41:16;;;;;;;2.13;0.10;;;9.50;99.90;;;;;;5037401;28;20030;-69
2020/12/24 10:43:42;;;;;;;1.70;0.80;;;9.50;99.90;;;;;;5018961;28;20030;-69
2020/12/24 10:46:13;;;;;;;2.25;0.40;;;9.50;99.90;;;;;;5020339;28;20123;-68
2020/12/24 10:48:39;;;;;;;1.10;0.63;;;9.50;99.90;;;;;;5036728;28;20498;-71
2020/12/24 10:51:08;;;;;;;0.70;0.20;;;9.50;99.90;;;;;;5018294;28;20029;-69
2020/12/24 10:53:34;;;;;;;27.33;18.02;;;9.50;99.90;;;;;;5018767;28;20030;-67
2020/12/24 10:56:00;;;;;;;41.70;29.63;;;9.50;99.90;;;;;;5035188;28;20036;-68
2020/12/24 10:58:26;;;;;;;1.45;0.40;;;9.60;99.90;;;;;;5017904;28;20097;-67
2020/12/24 11:00:51;;;;;;;0.65;0.25;;;9.50;99.90;;;;;;5026242;28;20021;-70
2020/12/24 11:03:19;;;;;;;1.73;0.40;;;9.90;99.90;;;;;;5037184;28;20503;-68
2020/12/24 11:05:45;;;;;;;0.50;0.50;;;10.80;99.90;;;;;;5054570;28;20036;-74
2020/12/24 11:08:11;;;;;;;2.00;0.35;;;11.90;99.90;;;;;;5055394;28;20445;-70
2020/12/24 11:10:36;;;;;;;0.80;0.20;;;12.90;99.90;;;;;;5037154;28;20067;-70
2020/12/24 11:13:02;;;;;;;1.85;0.22;;;12.70;99.90;;;;;;5037413;28;20082;-70
2020/12/24 11:15:28;;;;;;;0.57;0.20;;;13.00;99.90;;;;;;5055611;28;20036;-71
2020/12/24 11:17:53;;;;;;;0.90;0.32;;;12.80;99.90;;;;;;5038165;28;20021;-70
2020/12/24 11:20:19;;;;;;;1.20;0.50;;;12.90;99.90;;;;;;5054602;28;20036;-70
2020/12/24 11:22:45;;;;;;;1.58;0.30;;;13.00;99.90;;;;;;5036170;28;20031;-71
2020/12/24 11:25:10;;;;;;;2.85;0.30;;;12.40;99.90;;;;;;5037008;28;20029;-71
2020/12/24 11:27:36;;;;;;;0.85;0.20;;;12.10;99.90;;;;;;5036951;28;20385;-69
2020/12/24 11:30:03;;;;;;;0.60;0.20;;;11.60;99.90;;;;;;5035730;28;20020;-67
2020/12/24 11:32:29;;;;;;;0.47;0.10;;;11.20;99.90;;;;;;5027213;28;20436;-70
2020/12/24 11:34:54;;;;;;;0.47;0.25;;;10.80;99.90;;;;;;5032633;28;20022;-71
2020/12/24 11:37:20;;;;;;;0.88;0.38;;;10.70;99.90;;;;;;5024406;28;20535;-70
2020/12/24 11:39:46;;;;;;;0.63;0.17;;;10.50;99.90;;;;;;5029145;28;20032;-68
2020/12/24 11:42:13;;;;;;;1.83;0.30;;;10.30;99.90;;;;;;5025049;28;20463;-66
2020/12/24 11:44:39;;;;;;;25.23;16.45;;;10.80;99.90;;;;;;5043769;28;20024;-71
2020/12/24 11:47:05;;;;;;;114.60;79.03;;;11.80;99.90;;;;;;5035395;28;20039;-70
2020/12/24 11:49:31;;;;;;;1.80;0.82;;;12.10;99.90;;;;;;5048461;28;20098;-69
2020/12/24 11:52:01;;;;;;;2.55;0.93;;;12.10;99.90;;;;;;5034143;28;20033;-64
2020/12/24 11:54:27;;;;;;;1.75;0.50;;;13.00;99.90;;;;;;5036345;28;20025;-60
2020/12/24 11:56:53;;;;;;;1.02;0.20;;;13.10;99.90;;;;;;5048705;28;20033;-69
2020/12/24 11:59:18;;;;;;;0.80;0.32;;;13.10;99.90;;;;;;5026900;28;20086;-69
2020/12/24 12:01:44;;;;;;;3.55;0.40;;;13.80;99.90;;;;;;5021239;28;20041;-70
2020/12/24 12:04:09;;;;;;;0.73;0.30;;;14.40;98.80;;;;;;5049467;28;20040;-70
2020/12/24 12:06:35;;;;;;;2.28;0.30;;;13.70;97.80;;;;;;5019177;28;20047;-69
2020/12/24 12:09:01;;;;;;;0.85;0.20;;;13.40;98.80;;;;;;5046117;28;20591;-67
2020/12/24 12:11:26;;;;;;;0.40;0.17;;;12.80;99.70;;;;;;5036806;28;20374;-67
2020/12/24 12:13:52;;;;;;;1.85;1.70;;;12.40;99.80;;;;;;5035549;28;20109;-68
2020/12/24 12:16:24;;;;;;;1.10;0.40;;;12.30;99.90;;;;;;5050436;28;20136;-69
2020/12/24 12:18:50;;;;;;;0.77;0.20;;;12.60;99.90;;;;;;5021774;28;20181;-68
2020/12/24 12:21:22;;;;;;;0.43;0.20;;;12.50;99.90;;;;;;5029406;28;20058;-71
2020/12/24 12:23:48;;;;;;;0.95;0.30;;;12.00;99.90;;;;;;5021556;28;20111;-68
2020/12/24 12:26:15;;;;;;;2.75;0.90;;;11.80;99.90;;;;;;5034553;28;20118;-69
2020/12/24 12:28:46;;;;;;;4.32;0.57;;;11.70;99.90;;;;;;5037068;28;20036;-72
2020/12/24 12:31:20;;;;;;;0.85;0.30;;;11.50;99.90;;;;;;5036572;28;20028;-70
2020/12/24 12:33:47;;;;;;;2.13;0.90;;;11.30;99.90;;;;;;5034163;28;20040;-71
2020/12/24 12:36:13;;;;;;;5.03;0.40;;;11.30;99.90;;;;;;5036083;28;20038;-69
2020/12/24 12:38:39;;;;;;;2.55;0.30;;;11.00;99.90;;;;;;5035397;28;20029;-69
2020/12/24 12:41:05;;;;;;;1.00;0.38;;;11.00;99.90;;;;;;5014984;28;20206;-70
2020/12/24 12:43:30;;;;;;;0.85;0.22;;;10.90;99.90;;;;;;5033432;28;20471;-69
2020/12/24 12:45:56;;;;;;;2.00;0.40;;;10.90;99.90;;;;;;5033133;28;20443;-69
2020/12/24 12:48:21;;;;;;;1.20;0.10;;;10.90;99.90;;;;;;5015890;28;20384;-72
2020/12/24 12:50:48;;;;;;;0.73;0.30;;;10.80;99.90;;;;;;5014354;28;20059;-69
2020/12/24 12:53:14;;;;;;;1.00;0.20;;;10.80;99.90;;;;;;5015598;28;20033;-69